createdAt,value
2018-09-10T00:00:51.887Z,10.40
2018-09-10T00:03:20.075Z,10.00
2018-09-10T00:05:48.251Z,10.37
2018-09-10T00:08:16.457Z,9.67
2018-09-10T00:10:44.644Z,9.77
2018-09-10T00:13:12.820Z,9.73
2018-09-10T00:15:41.018Z,10.73
2018-09-10T00:18:09.191Z,9.43
2018-09-10T00:20:37.384Z,10.33
2018-09-10T00:23:05.563Z,9.77
2018-09-10T00:25:33.748Z,10.23
2018-09-10T00:28:01.936Z,10.23
2018-09-10T00:30:30.238Z,9.83
2018-09-10T00:32:58.412Z,9.90
2018-09-10T00:35:26.602Z,9.60
2018-09-10T00:37:54.783Z,10.00
2018-09-10T00:40:23.019Z,10.80
2018-09-10T00:42:51.204Z,10.70
2018-09-10T00:45:19.432Z,10.43
2018-09-10T00:47:47.632Z,10.87
2018-09-10T00:50:15.832Z,10.67
2018-09-10T00:52:44.003Z,10.60
2018-09-10T00:55:12.223Z,10.50
2018-09-10T00:57:40.404Z,9.93
2018-09-10T01:00:08.592Z,10.40
2018-09-10T01:02:36.787Z,10.00
2018-09-10T01:05:05.073Z,10.20
2018-09-10T01:07:33.259Z,9.80
2018-09-10T01:10:01.443Z,10.50
2018-09-10T01:12:29.656Z,9.27
2018-09-10T01:14:57.832Z,9.80
2018-09-10T01:17:26.026Z,10.07
2018-09-10T01:19:54.940Z,10.00
2018-09-10T01:22:23.406Z,9.73
2018-09-10T01:24:51.587Z,10.17
2018-09-10T01:27:19.784Z,9.83
2018-09-10T01:29:47.959Z,10.10
2018-09-10T01:32:16.156Z,10.20
2018-09-10T01:34:49.680Z,9.70
2018-09-10T01:37:17.857Z,9.50
2018-09-10T01:39:46.035Z,10.30
2018-09-10T01:42:14.227Z,9.70
2018-09-10T01:44:42.424Z,9.83
2018-09-10T01:47:10.603Z,9.93
2018-09-10T01:49:38.778Z,9.40
2018-09-10T01:52:06.954Z,10.30
2018-09-10T01:54:35.531Z,10.27
2018-09-10T01:57:03.718Z,9.80
2018-09-10T01:59:31.900Z,10.50
2018-09-10T02:02:00.084Z,10.13
2018-09-10T02:04:28.267Z,10.10
2018-09-10T02:06:56.435Z,9.57
2018-09-10T02:09:24.608Z,10.80
2018-09-10T02:11:52.863Z,10.67
2018-09-10T02:14:21.041Z,10.53
2018-09-10T02:16:49.224Z,10.00
2018-09-10T02:19:17.401Z,10.50
2018-09-10T02:21:45.597Z,10.73
2018-09-10T02:24:13.777Z,10.20
2018-09-10T02:26:41.954Z,9.47
2018-09-10T02:29:10.135Z,10.17
2018-09-10T02:31:38.298Z,10.00
2018-09-10T02:34:06.481Z,10.57
2018-09-10T02:36:34.679Z,10.20
2018-09-10T02:39:02.873Z,9.90
2018-09-10T02:41:31.072Z,10.27
2018-09-10T02:43:59.247Z,10.40
2018-09-10T02:46:27.424Z,10.50
2018-09-10T02:48:55.594Z,10.50
2018-09-10T02:51:23.807Z,10.00
2018-09-10T02:53:51.991Z,10.10
2018-09-10T02:56:20.188Z,10.50
2018-09-10T02:58:48.363Z,10.57
2018-09-10T03:01:16.563Z,10.03
2018-09-10T03:03:44.750Z,9.70
2018-09-10T03:06:12.932Z,9.20
2018-09-10T03:08:41.102Z,9.63
2018-09-10T03:11:09.318Z,9.93
2018-09-10T03:13:37.499Z,10.03
2018-09-10T03:16:05.686Z,10.00
2018-09-10T03:18:33.889Z,10.73
2018-09-10T03:21:02.134Z,10.20
2018-09-10T03:23:30.340Z,10.40
2018-09-10T03:25:58.511Z,9.77
2018-09-10T03:28:26.703Z,9.60
2018-09-10T03:30:54.888Z,9.80
2018-09-10T03:33:23.191Z,9.80
2018-09-10T03:35:51.459Z,9.93
2018-09-10T03:38:19.652Z,9.53
2018-09-10T03:40:47.910Z,9.87
2018-09-10T03:43:16.110Z,9.17
2018-09-10T03:45:44.315Z,9.83
2018-09-10T03:48:12.607Z,9.80
2018-09-10T03:50:40.822Z,9.30
2018-09-10T03:53:09.054Z,9.60
2018-09-10T03:55:37.336Z,9.17
2018-09-10T03:58:05.544Z,9.40
2018-09-10T04:00:33.829Z,9.70
2018-09-10T04:03:02.091Z,9.37
2018-09-10T04:05:30.335Z,8.90
2018-09-10T04:07:58.586Z,9.83
2018-09-10T04:10:26.774Z,9.70
2018-09-10T04:12:54.952Z,9.50
2018-09-10T04:15:23.214Z,9.87
2018-09-10T04:17:51.416Z,9.67
2018-09-10T04:20:19.698Z,9.90
2018-09-10T04:22:47.895Z,9.80
2018-09-10T04:25:16.121Z,9.40
2018-09-10T04:27:44.326Z,9.30
2018-09-10T04:30:15.543Z,8.80
2018-09-10T04:32:43.795Z,9.10
2018-09-10T04:35:12.603Z,9.60
2018-09-10T04:37:41.250Z,9.60
2018-09-10T04:40:09.504Z,9.70
2018-09-10T04:42:37.744Z,9.00
2018-09-10T04:45:06.179Z,8.77
2018-09-10T04:47:34.456Z,9.27
2018-09-10T04:50:03.135Z,9.33
2018-09-10T04:52:31.351Z,9.20
2018-09-10T04:54:59.645Z,9.27
2018-09-10T04:57:27.859Z,9.70
2018-09-10T04:59:56.159Z,8.77
2018-09-10T05:02:24.335Z,9.47
2018-09-10T05:04:52.572Z,10.10
2018-09-10T05:07:20.896Z,9.37
2018-09-10T05:09:49.196Z,9.30
2018-09-10T05:12:17.356Z,9.23
2018-09-10T05:14:45.583Z,9.33
2018-09-10T05:17:13.764Z,9.53
2018-09-10T05:19:42.013Z,9.40
2018-09-10T05:22:10.286Z,9.40
2018-09-10T05:24:38.435Z,9.10
2018-09-10T05:27:06.638Z,9.23
2018-09-10T05:29:34.836Z,8.90
2018-09-10T05:32:03.048Z,9.90
2018-09-10T05:34:31.259Z,9.80
2018-09-10T05:36:59.483Z,9.80
2018-09-10T05:39:27.703Z,9.30
2018-09-10T05:41:55.986Z,9.90
2018-09-10T05:44:24.196Z,10.53
2018-09-10T05:46:52.446Z,9.60
2018-09-10T05:49:20.686Z,9.53
2018-09-10T05:51:49.012Z,9.30
2018-09-10T05:54:17.237Z,9.63
2018-09-10T05:56:45.956Z,9.80
2018-09-10T05:59:14.228Z,9.87
2018-09-10T06:01:42.513Z,9.93
2018-09-10T06:04:10.736Z,9.90
2018-09-10T06:06:38.926Z,10.00
2018-09-10T06:09:07.580Z,9.40
2018-09-10T06:11:35.828Z,9.07
2018-09-10T06:14:04.112Z,9.70
2018-09-10T06:16:32.342Z,9.27
2018-09-10T06:19:00.772Z,9.17
2018-09-10T06:21:34.619Z,9.40
2018-09-10T06:24:02.824Z,10.20
2018-09-10T06:26:31.084Z,9.50
2018-09-10T06:28:59.320Z,9.43
2018-09-10T06:31:27.507Z,9.80
2018-09-10T06:33:56.590Z,9.60
2018-09-10T06:36:25.284Z,9.67
2018-09-10T06:38:53.608Z,10.63
2018-09-10T06:41:21.935Z,10.03
2018-09-10T06:43:50.204Z,10.00
2018-09-10T06:46:18.421Z,10.30
2018-09-10T06:48:46.711Z,9.33
2018-09-10T06:51:14.912Z,10.03
2018-09-10T06:53:43.123Z,10.10
2018-09-10T06:56:11.348Z,9.40
2018-09-10T06:58:39.561Z,10.27
2018-09-10T07:01:07.740Z,9.70
2018-09-10T07:03:35.958Z,9.80
2018-09-10T07:06:04.146Z,10.23
2018-09-10T07:08:32.409Z,10.60
2018-09-10T07:11:00.568Z,11.43
2018-09-10T07:13:28.794Z,10.50
2018-09-10T07:15:56.948Z,10.10
2018-09-10T07:18:25.200Z,10.50
2018-09-10T07:20:53.438Z,9.90
2018-09-10T07:23:21.627Z,10.00
2018-09-10T07:25:49.833Z,9.90
2018-09-10T07:28:18.023Z,11.00
2018-09-10T07:30:46.318Z,11.50
2018-09-10T07:33:14.572Z,11.70
2018-09-10T07:35:43.290Z,11.70
2018-09-10T07:38:11.503Z,11.23
2018-09-10T07:40:39.758Z,12.43
2018-09-10T07:43:07.958Z,12.13
2018-09-10T07:45:36.219Z,12.03
2018-09-10T07:48:04.630Z,11.73
2018-09-10T07:50:32.847Z,12.03
2018-09-10T07:53:01.034Z,12.40
2018-09-10T07:55:29.299Z,11.67
2018-09-10T07:57:57.527Z,11.50
2018-09-10T08:00:25.799Z,10.80
2018-09-10T08:02:54.029Z,11.90
2018-09-10T08:05:22.251Z,12.50
2018-09-10T08:07:50.576Z,12.70
2018-09-10T08:10:18.821Z,11.83
2018-09-10T08:12:47.265Z,12.40
2018-09-10T08:15:15.424Z,12.73
2018-09-10T08:17:43.698Z,12.23
2018-09-10T08:20:11.927Z,13.50
2018-09-10T08:22:40.169Z,16.53
2018-09-10T08:25:08.472Z,17.27
2018-09-10T08:27:36.690Z,16.30
2018-09-10T08:30:05.275Z,16.50
2018-09-10T08:32:33.528Z,16.00
2018-09-10T08:35:01.729Z,14.67
2018-09-10T08:37:29.928Z,15.53
2018-09-10T08:39:58.119Z,15.30
2018-09-10T08:42:26.529Z,16.00
2018-09-10T08:44:54.799Z,15.50
2018-09-10T08:47:22.999Z,18.17
2018-09-10T08:49:51.286Z,17.97
2018-09-10T08:52:19.560Z,19.03
2018-09-10T08:54:48.244Z,17.77
2018-09-10T08:57:16.048Z,17.97
2018-09-10T08:59:44.509Z,16.20
2018-09-10T09:02:12.749Z,16.30
2018-09-10T09:04:41.006Z,19.10
2018-09-10T09:07:09.220Z,17.53
2018-09-10T09:09:37.431Z,16.60
2018-09-10T09:12:05.630Z,17.90
2018-09-10T09:14:33.812Z,16.77
2018-09-10T09:17:01.992Z,17.47
2018-09-10T09:19:30.189Z,18.87
2018-09-10T09:21:58.476Z,18.60
2018-09-10T09:24:26.782Z,19.57
2018-09-10T09:26:54.993Z,19.70
2018-09-10T09:29:23.233Z,17.23
2018-09-10T09:31:51.529Z,16.60
2018-09-10T09:34:19.800Z,17.60
2018-09-10T09:36:53.426Z,18.50
2018-09-10T09:39:26.899Z,16.30
2018-09-10T09:42:00.304Z,17.87
2018-09-10T09:44:33.796Z,17.10
2018-09-10T09:47:02.015Z,15.83
2018-09-10T09:49:30.224Z,15.60
2018-09-10T09:51:58.450Z,15.83
2018-09-10T09:54:26.646Z,15.93
2018-09-10T09:56:54.884Z,16.20
2018-09-10T09:59:23.104Z,14.67
2018-09-10T10:01:52.704Z,15.57
2018-09-10T10:04:21.024Z,13.90
2018-09-10T10:06:49.155Z,16.47
2018-09-10T10:09:17.371Z,11.90
2018-09-10T10:11:45.782Z,12.30
2018-09-10T10:14:13.916Z,14.13
2018-09-10T10:16:42.170Z,13.40
2018-09-10T10:19:10.381Z,13.73
2018-09-10T10:21:38.613Z,13.03
2018-09-10T10:24:06.914Z,12.90
2018-09-10T10:26:35.136Z,13.30
2018-09-10T10:29:03.334Z,12.80
2018-09-10T10:31:31.585Z,12.70
2018-09-10T10:33:59.799Z,13.20
2018-09-10T10:36:28.004Z,12.80
2018-09-10T10:38:56.217Z,13.07
2018-09-10T10:41:24.446Z,12.83
2018-09-10T10:43:52.658Z,13.17
2018-09-10T10:46:20.868Z,12.93
2018-09-10T10:48:49.089Z,12.77
2018-09-10T10:51:17.310Z,12.67
2018-09-10T10:53:45.536Z,13.00
2018-09-10T10:56:13.716Z,13.20
2018-09-10T10:58:42.012Z,14.13
2018-09-10T11:01:10.256Z,13.57
2018-09-10T11:03:38.433Z,14.97
2018-09-10T11:06:06.704Z,16.13
2018-09-10T11:08:34.876Z,14.40
2018-09-10T11:11:03.052Z,13.60
2018-09-10T11:13:31.235Z,14.70
2018-09-10T11:15:59.415Z,16.67
2018-09-10T11:18:27.600Z,15.20
2018-09-10T11:20:55.790Z,15.20
2018-09-10T11:23:23.964Z,16.23
2018-09-10T11:25:52.148Z,15.00
2018-09-10T11:28:20.355Z,16.73
2018-09-10T11:30:48.530Z,17.00
2018-09-10T11:33:16.724Z,15.37
2018-09-10T11:35:45.016Z,15.70
2018-09-10T11:38:13.199Z,15.83
2018-09-10T11:40:41.383Z,13.73
2018-09-10T11:43:09.582Z,16.50
2018-09-10T11:45:37.795Z,14.30
2018-09-10T11:48:06.185Z,13.63
2018-09-10T11:50:34.797Z,13.10
2018-09-10T11:53:03.062Z,13.33
2018-09-10T11:55:31.778Z,12.57
2018-09-10T11:57:59.875Z,12.00
2018-09-10T12:00:28.060Z,12.37
2018-09-10T12:02:56.273Z,12.53
2018-09-10T12:05:24.448Z,12.43
2018-09-10T12:07:52.644Z,12.10
2018-09-10T12:10:20.816Z,12.30
2018-09-10T12:12:49.005Z,12.97
2018-09-10T12:15:18.427Z,13.03
2018-09-10T12:17:46.615Z,12.57
2018-09-10T12:20:14.814Z,12.20
2018-09-10T12:22:43.000Z,12.20
2018-09-10T12:25:11.187Z,12.23
2018-09-10T12:27:39.375Z,12.00
2018-09-10T12:30:07.630Z,11.53
2018-09-10T12:32:35.809Z,11.13
2018-09-10T12:35:04.011Z,11.90
2018-09-10T12:37:32.258Z,11.53
2018-09-10T12:40:00.445Z,11.93
2018-09-10T12:42:28.636Z,11.30
2018-09-10T12:44:56.855Z,10.80
2018-09-10T12:47:25.179Z,11.43
2018-09-10T12:49:53.404Z,11.73
2018-09-10T12:52:21.590Z,11.77
2018-09-10T12:54:49.783Z,10.87
2018-09-10T12:57:17.967Z,10.93
2018-09-10T12:59:46.180Z,11.30
2018-09-10T13:02:14.375Z,10.73
2018-09-10T13:04:42.557Z,11.60
2018-09-10T13:07:10.888Z,10.27
2018-09-10T13:09:39.104Z,11.13
2018-09-10T13:12:07.315Z,11.10
2018-09-10T13:14:35.512Z,11.40
2018-09-10T13:17:04.068Z,10.80
2018-09-10T13:19:32.274Z,10.47
2018-09-10T13:22:00.483Z,10.63
2018-09-10T13:24:28.662Z,10.13
2018-09-10T13:26:57.078Z,10.47
2018-09-10T13:29:25.321Z,11.10
2018-09-10T13:31:53.523Z,11.10
2018-09-10T13:34:21.715Z,10.70
2018-09-10T13:36:49.929Z,10.17
2018-09-10T13:39:18.169Z,10.43
2018-09-10T13:41:46.378Z,10.53
2018-09-10T13:44:14.600Z,10.73
2018-09-10T13:46:42.797Z,10.80
2018-09-10T13:49:11.005Z,10.33
2018-09-10T13:51:39.182Z,11.13
2018-09-10T13:54:07.423Z,11.53
2018-09-10T13:56:35.558Z,10.90
2018-09-10T13:59:03.760Z,10.53
2018-09-10T14:01:31.976Z,10.93
2018-09-10T14:04:00.195Z,10.30
2018-09-10T14:06:28.384Z,10.63
2018-09-10T14:08:56.574Z,10.73
2018-09-10T14:11:24.743Z,10.70
2018-09-10T14:13:52.948Z,10.80
2018-09-10T14:16:21.149Z,11.53
2018-09-10T14:18:49.336Z,10.80
2018-09-10T14:21:17.615Z,10.60
2018-09-10T14:23:45.823Z,10.03
2018-09-10T14:26:14.000Z,10.70
2018-09-10T14:28:42.199Z,9.70
2018-09-10T14:31:10.422Z,9.90
2018-09-10T14:33:38.615Z,10.03
2018-09-10T14:36:06.823Z,10.63
2018-09-10T14:38:35.047Z,10.30
2018-09-10T14:41:03.224Z,9.97
2018-09-10T14:43:31.400Z,10.37
2018-09-10T14:45:59.703Z,11.43
2018-09-10T14:48:27.908Z,9.93
2018-09-10T14:50:56.165Z,10.23
2018-09-10T14:53:24.355Z,10.43
2018-09-10T14:55:52.639Z,10.07
2018-09-10T14:58:20.838Z,10.27
2018-09-10T15:00:48.994Z,10.60
2018-09-10T15:03:17.200Z,10.60
2018-09-10T15:05:45.458Z,11.00
2018-09-10T15:08:13.592Z,10.67
2018-09-10T15:10:41.795Z,10.67
2018-09-10T15:13:09.975Z,11.30
2018-09-10T15:15:38.167Z,10.37
2018-09-10T15:18:06.934Z,10.07
2018-09-10T15:20:35.150Z,10.07
2018-09-10T15:23:03.339Z,11.30
2018-09-10T15:25:31.537Z,9.97
2018-09-10T15:27:59.719Z,10.20
2018-09-10T15:30:27.898Z,10.43
2018-09-10T15:32:56.099Z,10.13
2018-09-10T15:35:24.275Z,10.50
2018-09-10T15:37:52.459Z,10.20
2018-09-10T15:40:20.636Z,10.90
2018-09-10T15:42:48.847Z,10.27
2018-09-10T15:45:17.081Z,9.50
2018-09-10T15:47:45.219Z,10.03
2018-09-10T15:50:13.428Z,11.03
2018-09-10T15:52:41.606Z,11.10
2018-09-10T15:55:09.783Z,9.30
2018-09-10T15:57:38.006Z,9.97
2018-09-10T16:00:06.287Z,9.43
2018-09-10T16:02:34.466Z,9.57
2018-09-10T16:05:02.647Z,9.90
2018-09-10T16:07:30.833Z,8.97
2018-09-10T16:09:59.019Z,9.77
2018-09-10T16:12:27.216Z,9.73
2018-09-10T16:14:55.988Z,9.53
2018-09-10T16:17:24.205Z,10.00
2018-09-10T16:19:52.407Z,9.40
2018-09-10T16:22:20.636Z,10.27
2018-09-10T16:24:48.850Z,10.20
2018-09-10T16:27:17.088Z,9.20
2018-09-10T16:29:45.227Z,10.50
2018-09-10T16:32:13.412Z,9.70
2018-09-10T16:34:41.602Z,10.67
2018-09-10T16:37:09.803Z,9.53
2018-09-10T16:39:38.144Z,9.73
2018-09-10T16:42:06.337Z,10.23
2018-09-10T16:44:34.511Z,9.87
2018-09-10T16:47:02.726Z,9.40
2018-09-10T16:52:33.343Z,9.50
2018-09-10T16:55:01.647Z,10.07
2018-09-10T16:57:29.715Z,10.27
2018-09-10T16:59:57.925Z,9.87
2018-09-10T17:02:26.108Z,9.53
2018-09-10T17:04:58.695Z,9.50
2018-09-10T17:07:29.172Z,9.40
2018-09-10T17:09:57.338Z,9.63
2018-09-10T17:12:25.544Z,9.60
2018-09-10T17:14:53.777Z,9.50
2018-09-10T17:17:21.899Z,10.43
2018-09-10T17:19:50.079Z,9.77
2018-09-10T17:22:18.280Z,9.80
2018-09-10T17:24:46.465Z,8.73
2018-09-10T17:27:14.664Z,9.17
2018-09-10T17:29:42.834Z,9.23
2018-09-10T17:32:11.051Z,9.90
2018-09-10T17:34:39.231Z,9.90
2018-09-10T17:37:07.455Z,9.50
2018-09-10T17:39:35.630Z,10.53
2018-09-10T17:42:03.824Z,9.80
2018-09-10T17:44:32.016Z,10.50
2018-09-10T17:47:00.276Z,9.53
2018-09-10T17:49:28.366Z,10.30
2018-09-10T17:51:56.737Z,11.10
2018-09-10T17:54:24.945Z,9.40
2018-09-10T17:56:54.362Z,10.03
2018-09-10T17:59:22.671Z,10.30
2018-09-10T18:01:52.652Z,11.00
2018-09-10T18:04:20.895Z,9.90
2018-09-10T18:06:49.783Z,10.80
2018-09-10T18:09:18.878Z,10.60
2018-09-10T18:11:47.126Z,9.50
2018-09-10T18:14:15.397Z,9.73
2018-09-10T18:16:43.748Z,10.20
2018-09-10T18:19:11.951Z,11.17
2018-09-10T18:21:42.234Z,9.77
2018-09-10T18:24:10.448Z,9.60
2018-09-10T18:26:38.702Z,9.93
2018-09-10T18:29:06.884Z,9.60
2018-09-10T18:31:35.199Z,10.20
2018-09-10T18:34:03.563Z,10.70
2018-09-10T18:36:32.280Z,8.87
2018-09-10T18:39:01.113Z,9.40
2018-09-10T18:41:29.270Z,9.13
2018-09-10T18:43:58.707Z,9.77
2018-09-10T18:48:03.482Z,10.07
2018-09-10T18:53:05.559Z,10.60
2018-09-10T18:55:33.973Z,12.07
2018-09-10T18:58:02.227Z,10.90
2018-09-10T19:00:30.480Z,10.93
2018-09-10T19:02:59.414Z,11.10
2018-09-10T19:05:27.686Z,10.57
2018-09-10T19:07:56.408Z,10.50
2018-09-10T19:10:25.643Z,10.60
2018-09-10T19:12:54.227Z,10.50
2018-09-10T19:15:22.492Z,10.47
2018-09-10T19:17:50.791Z,10.90
2018-09-10T19:20:19.223Z,10.93
2018-09-10T19:22:48.507Z,10.10
2018-09-10T19:25:16.715Z,10.03
2018-09-10T19:27:45.134Z,10.50
2018-09-10T19:30:13.461Z,11.10
2018-09-10T19:32:41.695Z,10.93
2018-09-10T19:35:09.988Z,11.10
2018-09-10T19:37:38.285Z,11.37
2018-09-10T19:40:06.459Z,11.60
2018-09-10T19:42:34.691Z,11.87
2018-09-10T19:45:03.939Z,11.70
2018-09-10T19:47:32.224Z,11.10
2018-09-10T19:50:00.436Z,11.03
2018-09-10T19:52:29.452Z,11.80
2018-09-10T19:54:59.109Z,12.10
2018-09-10T19:57:28.476Z,12.10
2018-09-10T19:59:57.564Z,11.70
2018-09-10T20:02:27.880Z,12.87
2018-09-10T20:04:57.454Z,12.77
2018-09-10T20:07:26.757Z,12.23
2018-09-10T20:09:55.237Z,12.50
2018-09-10T20:12:23.524Z,11.93
2018-09-10T20:14:51.807Z,11.77
2018-09-10T20:17:20.019Z,11.23
2018-09-10T20:19:48.235Z,11.60
2018-09-10T20:22:18.408Z,12.37
2018-09-10T20:24:46.662Z,13.17
2018-09-10T20:27:15.773Z,11.47
2018-09-10T20:29:45.830Z,11.53
2018-09-10T20:32:13.992Z,11.83
2018-09-10T20:34:42.163Z,13.00
2018-09-10T20:37:10.343Z,12.60
2018-09-10T20:39:38.576Z,13.33
2018-09-10T20:42:06.715Z,12.33
2018-09-10T20:44:34.878Z,12.50
2018-09-10T20:47:03.064Z,13.00
2018-09-10T20:49:31.432Z,12.43
2018-09-10T20:51:59.626Z,12.93
2018-09-10T20:54:27.807Z,12.30
2018-09-10T20:56:55.995Z,13.27
2018-09-10T20:59:24.195Z,13.33
2018-09-10T21:01:52.363Z,13.60
2018-09-10T21:04:20.547Z,13.80
2018-09-10T21:06:48.740Z,13.73
2018-09-10T21:09:16.919Z,13.50
2018-09-10T21:11:45.100Z,14.40
2018-09-10T21:14:13.272Z,14.07
2018-09-10T21:16:41.563Z,13.80
2018-09-10T21:19:09.732Z,13.80
2018-09-10T21:21:37.907Z,14.00
2018-09-10T21:24:06.159Z,14.70
2018-09-10T21:26:34.334Z,14.47
2018-09-10T21:29:02.816Z,13.93
2018-09-10T21:31:31.018Z,14.23
2018-09-10T21:33:59.180Z,14.27
2018-09-10T21:36:27.374Z,15.30
2018-09-10T21:38:55.576Z,13.40
2018-09-10T21:41:23.750Z,14.77
2018-09-10T21:43:51.928Z,14.67
2018-09-10T21:46:20.130Z,13.97
2018-09-10T21:48:48.328Z,13.83
2018-09-10T21:51:16.528Z,16.07
2018-09-10T21:53:44.780Z,15.03
2018-09-10T21:56:12.895Z,15.00
2018-09-10T21:58:41.095Z,14.90
2018-09-10T22:01:09.278Z,15.93
2018-09-10T22:03:37.467Z,14.90
2018-09-10T22:06:05.648Z,15.33
2018-09-10T22:08:33.828Z,14.40
2018-09-10T22:11:02.012Z,14.80
2018-09-10T22:13:30.204Z,15.87
2018-09-10T22:15:58.375Z,15.47
2018-09-10T22:18:26.555Z,14.57
2018-09-10T22:20:54.739Z,15.20
2018-09-10T22:23:22.927Z,14.40
2018-09-10T22:25:51.124Z,14.93
2018-09-10T22:28:19.307Z,15.63
2018-09-10T22:30:47.483Z,15.93
2018-09-10T22:33:15.741Z,15.40
2018-09-10T22:35:43.928Z,15.70
2018-09-10T22:38:12.107Z,15.00
2018-09-10T22:40:40.287Z,16.10
2018-09-10T22:43:08.470Z,15.90
2018-09-10T22:45:36.664Z,14.70
2018-09-10T22:48:05.087Z,15.60
2018-09-10T22:50:33.288Z,15.50
2018-09-10T22:53:01.495Z,14.93
2018-09-10T22:55:29.723Z,15.37
2018-09-10T22:57:57.930Z,14.40
2018-09-10T23:00:26.108Z,15.17
2018-09-10T23:02:54.299Z,14.50
2018-09-10T23:05:22.479Z,14.50
2018-09-10T23:07:50.646Z,15.40
2018-09-10T23:10:18.834Z,15.00
2018-09-10T23:12:47.025Z,14.23
2018-09-10T23:15:15.198Z,14.97
2018-09-10T23:17:43.391Z,13.90
2018-09-10T23:20:11.591Z,13.43
2018-09-10T23:22:39.800Z,12.90
2018-09-10T23:25:08.034Z,13.40
2018-09-10T23:27:36.226Z,13.47
2018-09-10T23:30:04.448Z,12.87
2018-09-10T23:32:32.648Z,13.77
2018-09-10T23:35:00.833Z,12.73
2018-09-10T23:37:29.003Z,12.73
2018-09-10T23:39:57.195Z,12.60
2018-09-10T23:42:25.379Z,12.40
2018-09-10T23:44:53.567Z,12.93
2018-09-10T23:47:21.739Z,12.47
2018-09-10T23:49:49.947Z,11.93
2018-09-10T23:52:18.123Z,12.30
2018-09-10T23:54:46.307Z,11.83
2018-09-10T23:57:14.490Z,13.07
2018-09-10T23:59:42.668Z,12.70
